sensor_id;sensor_type;location;lat;lon;timestamp;temperature;humidity
17948;DHT22;9099;47.958;11.366;2024-01-30T00:00:27;3.10;99.90
17948;DHT22;9099;47.958;11.366;2024-01-30T00:02:54;3.10;99.90
17948;DHT22;9099;47.958;11.366;2024-01-30T00:05:21;3.10;99.90
17948;DHT22;9099;47.958;11.366;2024-01-30T00:07:50;3.10;99.90
17948;DHT22;9099;47.958;11.366;2024-01-30T00:10:17;3.10;99.90
17948;DHT22;9099;47.958;11.366;2024-01-30T00:12:44;3.00;99.90
17948;DHT22;9099;47.958;11.366;2024-01-30T00:15:10;3.00;99.90
17948;DHT22;9099;47.958;11.366;2024-01-30T00:17:37;3.00;99.90
17948;DHT22;9099;47.958;11.366;2024-01-30T00:20:05;3.00;99.90
17948;DHT22;9099;47.958;11.366;2024-01-30T00:22:34;3.00;99.90
17948;DHT22;9099;47.958;11.366;2024-01-30T00:25:03;3.00;99.90
17948;DHT22;9099;47.958;11.366;2024-01-30T00:27:30;3.00;99.90
17948;DHT22;9099;47.958;11.366;2024-01-30T00:29:56;3.00;99.90
17948;DHT22;9099;47.958;11.366;2024-01-30T00:32:23;3.00;99.90
17948;DHT22;9099;47.958;11.366;2024-01-30T00:34:50;3.00;99.90
17948;DHT22;9099;47.958;11.366;2024-01-30T00:37:17;3.00;99.90
17948;DHT22;9099;47.958;11.366;2024-01-30T00:39:44;3.00;99.90
17948;DHT22;9099;47.958;11.366;2024-01-30T00:42:12;3.00;99.90
17948;DHT22;9099;47.958;11.366;2024-01-30T00:44:39;3.00;99.90
17948;DHT22;9099;47.958;11.366;2024-01-30T00:47:06;3.00;99.90
17948;DHT22;9099;47.958;11.366;2024-01-30T00:49:33;3.00;99.90
17948;DHT22;9099;47.958;11.366;2024-01-30T00:52:00;3.00;99.90
17948;DHT22;9099;47.958;11.366;2024-01-30T00:54:27;3.00;99.90
17948;DHT22;9099;47.958;11.366;2024-01-30T00:56:53;3.10;99.90
17948;DHT22;9099;47.958;11.366;2024-01-30T00:59:22;3.00;99.90
17948;DHT22;9099;47.958;11.366;2024-01-30T01:01:48;3.00;99.90
17948;DHT22;9099;47.958;11.366;2024-01-30T01:04:15;3.10;99.90
17948;DHT22;9099;47.958;11.366;2024-01-30T01:06:42;3.10;99.90
17948;DHT22;9099;47.958;11.366;2024-01-30T01:09:10;3.10;99.90
17948;DHT22;9099;47.958;11.366;2024-01-30T01:11:37;3.10;99.90
17948;DHT22;9099;47.958;11.366;2024-01-30T01:14:04;3.10;99.90
17948;DHT22;9099;47.958;11.366;2024-01-30T01:16:33;3.10;99.90
17948;DHT22;9099;47.958;11.366;2024-01-30T01:18:59;3.10;99.90
17948;DHT22;9099;47.958;11.366;2024-01-30T01:21:26;3.10;99.90
17948;DHT22;9099;47.958;11.366;2024-01-30T01:23:53;3.10;99.90
17948;DHT22;9099;47.958;11.366;2024-01-30T01:26:20;3.10;99.90
17948;DHT22;9099;47.958;11.366;2024-01-30T01:28:47;3.10;99.90
17948;DHT22;9099;47.958;11.366;2024-01-30T01:31:13;3.10;99.90
17948;DHT22;9099;47.958;11.366;2024-01-30T01:33:42;3.10;99.90
17948;DHT22;9099;47.958;11.366;2024-01-30T01:36:08;3.10;99.90
17948;DHT22;9099;47.958;11.366;2024-01-30T01:38:35;3.10;99.90
17948;DHT22;9099;47.958;11.366;2024-01-30T01:41:02;3.10;99.90
17948;DHT22;9099;47.958;11.366;2024-01-30T01:43:29;3.00;99.90
17948;DHT22;9099;47.958;11.366;2024-01-30T01:45:56;3.00;99.90
17948;DHT22;9099;47.958;11.366;2024-01-30T01:48:23;3.00;99.90
17948;DHT22;9099;47.958;11.366;2024-01-30T01:50:52;3.00;99.90
17948;DHT22;9099;47.958;11.366;2024-01-30T01:53:19;3.00;99.90
17948;DHT22;9099;47.958;11.366;2024-01-30T01:55:46;3.00;99.90
17948;DHT22;9099;47.958;11.366;2024-01-30T01:58:14;2.90;99.90
17948;DHT22;9099;47.958;11.366;2024-01-30T02:00:42;2.90;99.90
17948;DHT22;9099;47.958;11.366;2024-01-30T02:03:10;2.90;99.90
17948;DHT22;9099;47.958;11.366;2024-01-30T02:05:38;2.90;99.90
17948;DHT22;9099;47.958;11.366;2024-01-30T02:08:08;2.90;99.90
17948;DHT22;9099;47.958;11.366;2024-01-30T02:10:35;2.90;99.90
17948;DHT22;9099;47.958;11.366;2024-01-30T02:13:02;2.90;99.90
17948;DHT22;9099;47.958;11.366;2024-01-30T02:15:30;2.90;99.90
17948;DHT22;9099;47.958;11.366;2024-01-30T02:17:57;2.90;99.90
17948;DHT22;9099;47.958;11.366;2024-01-30T02:20:25;2.80;99.90
17948;DHT22;9099;47.958;11.366;2024-01-30T02:22:54;2.80;99.90
17948;DHT22;9099;47.958;11.366;2024-01-30T02:25:30;2.70;99.90
17948;DHT22;9099;47.958;11.366;2024-01-30T02:27:57;2.70;99.90
17948;DHT22;9099;47.958;11.366;2024-01-30T02:30:24;2.70;99.90
17948;DHT22;9099;47.958;11.366;2024-01-30T02:32:51;2.70;99.90
17948;DHT22;9099;47.958;11.366;2024-01-30T02:35:18;2.60;99.90
17948;DHT22;9099;47.958;11.366;2024-01-30T02:37:45;2.60;99.90
17948;DHT22;9099;47.958;11.366;2024-01-30T02:40:13;2.60;99.90
17948;DHT22;9099;47.958;11.366;2024-01-30T02:42:40;2.60;99.90
17948;DHT22;9099;47.958;11.366;2024-01-30T02:45:09;2.50;99.90
17948;DHT22;9099;47.958;11.366;2024-01-30T02:47:36;2.50;99.90
17948;DHT22;9099;47.958;11.366;2024-01-30T02:50:03;2.50;99.90
17948;DHT22;9099;47.958;11.366;2024-01-30T02:52:30;2.50;99.90
17948;DHT22;9099;47.958;11.366;2024-01-30T02:54:57;2.50;99.90
17948;DHT22;9099;47.958;11.366;2024-01-30T02:57:25;2.50;99.90
17948;DHT22;9099;47.958;11.366;2024-01-30T02:59:52;2.40;99.90
17948;DHT22;9099;47.958;11.366;2024-01-30T03:02:19;2.40;99.90
17948;DHT22;9099;47.958;11.366;2024-01-30T03:04:46;2.40;99.90
17948;DHT22;9099;47.958;11.366;2024-01-30T03:07:12;2.40;99.90
17948;DHT22;9099;47.958;11.366;2024-01-30T03:09:41;2.40;99.90
17948;DHT22;9099;47.958;11.366;2024-01-30T03:12:09;2.40;99.90
17948;DHT22;9099;47.958;11.366;2024-01-30T03:14:37;2.40;99.90
17948;DHT22;9099;47.958;11.366;2024-01-30T03:17:04;2.40;99.90
17948;DHT22;9099;47.958;11.366;2024-01-30T03:19:31;2.40;99.90
17948;DHT22;9099;47.958;11.366;2024-01-30T03:21:58;2.40;99.90
17948;DHT22;9099;47.958;11.366;2024-01-30T03:24:24;2.40;99.90
17948;DHT22;9099;47.958;11.366;2024-01-30T03:26:51;2.40;99.90
17948;DHT22;9099;47.958;11.366;2024-01-30T03:29:18;2.40;99.90
17948;DHT22;9099;47.958;11.366;2024-01-30T03:31:47;2.40;99.90
17948;DHT22;9099;47.958;11.366;2024-01-30T03:34:14;2.40;99.90
17948;DHT22;9099;47.958;11.366;2024-01-30T03:36:41;2.40;99.90
17948;DHT22;9099;47.958;11.366;2024-01-30T03:39:07;2.40;99.90
17948;DHT22;9099;47.958;11.366;2024-01-30T03:41:34;2.40;99.90
17948;DHT22;9099;47.958;11.366;2024-01-30T03:44:02;2.40;99.90
17948;DHT22;9099;47.958;11.366;2024-01-30T03:46:28;2.50;99.90
17948;DHT22;9099;47.958;11.366;2024-01-30T03:48:57;2.50;99.90
17948;DHT22;9099;47.958;11.366;2024-01-30T03:51:23;2.50;99.90
17948;DHT22;9099;47.958;11.366;2024-01-30T03:53:50;2.40;99.90
17948;DHT22;9099;47.958;11.366;2024-01-30T03:56:17;2.40;99.90
17948;DHT22;9099;47.958;11.366;2024-01-30T03:58:44;2.40;99.90
17948;DHT22;9099;47.958;11.366;2024-01-30T04:01:13;2.40;99.90
17948;DHT22;9099;47.958;11.366;2024-01-30T04:03:40;2.40;99.90
17948;DHT22;9099;47.958;11.366;2024-01-30T04:06:08;2.40;99.90
17948;DHT22;9099;47.958;11.366;2024-01-30T04:08:35;2.40;99.90
17948;DHT22;9099;47.958;11.366;2024-01-30T04:11:04;2.40;99.90
17948;DHT22;9099;47.958;11.366;2024-01-30T04:13:32;2.30;99.90
17948;DHT22;9099;47.958;11.366;2024-01-30T04:15:59;2.40;99.90
17948;DHT22;9099;47.958;11.366;2024-01-30T04:18:27;2.40;99.90
17948;DHT22;9099;47.958;11.366;2024-01-30T04:20:54;2.30;99.90
17948;DHT22;9099;47.958;11.366;2024-01-30T04:23:22;2.40;99.90
17948;DHT22;9099;47.958;11.366;2024-01-30T04:25:49;2.40;99.90
17948;DHT22;9099;47.958;11.366;2024-01-30T04:28:16;2.40;99.90
17948;DHT22;9099;47.958;11.366;2024-01-30T04:30:42;2.40;99.90
17948;DHT22;9099;47.958;11.366;2024-01-30T04:33:10;2.40;99.90
17948;DHT22;9099;47.958;11.366;2024-01-30T04:35:37;2.40;99.90
17948;DHT22;9099;47.958;11.366;2024-01-30T04:38:04;2.40;99.90
17948;DHT22;9099;47.958;11.366;2024-01-30T04:40:32;2.40;99.90
17948;DHT22;9099;47.958;11.366;2024-01-30T04:42:59;2.40;99.90
17948;DHT22;9099;47.958;11.366;2024-01-30T04:45:26;2.40;99.90
17948;DHT22;9099;47.958;11.366;2024-01-30T04:47:52;2.40;99.90
17948;DHT22;9099;47.958;11.366;2024-01-30T04:50:19;2.40;99.90
17948;DHT22;9099;47.958;11.366;2024-01-30T04:52:46;2.40;99.90
17948;DHT22;9099;47.958;11.366;2024-01-30T04:55:13;2.40;99.90
17948;DHT22;9099;47.958;11.366;2024-01-30T04:57:41;2.30;99.90
17948;DHT22;9099;47.958;11.366;2024-01-30T05:00:09;2.40;99.90
17948;DHT22;9099;47.958;11.366;2024-01-30T05:02:36;2.30;99.90
17948;DHT22;9099;47.958;11.366;2024-01-30T05:05:03;2.30;99.90
17948;DHT22;9099;47.958;11.366;2024-01-30T05:07:30;2.30;99.90
17948;DHT22;9099;47.958;11.366;2024-01-30T05:13:15;2.20;99.90
17948;DHT22;9099;47.958;11.366;2024-01-30T05:15:42;2.30;99.90
17948;DHT22;9099;47.958;11.366;2024-01-30T05:18:08;2.30;99.90
17948;DHT22;9099;47.958;11.366;2024-01-30T05:20:35;2.30;99.90
17948;DHT22;9099;47.958;11.366;2024-01-30T05:23:02;2.20;99.90
17948;DHT22;9099;47.958;11.366;2024-01-30T05:25:29;2.20;99.90
17948;DHT22;9099;47.958;11.366;2024-01-30T05:27:56;2.20;99.90
17948;DHT22;9099;47.958;11.366;2024-01-30T05:30:24;2.20;99.90
17948;DHT22;9099;47.958;11.366;2024-01-30T05:32:51;2.20;99.90
17948;DHT22;9099;47.958;11.366;2024-01-30T05:35:18;2.20;99.90
17948;DHT22;9099;47.958;11.366;2024-01-30T05:37:47;2.20;99.90
17948;DHT22;9099;47.958;11.366;2024-01-30T05:40:14;2.20;99.90
17948;DHT22;9099;47.958;11.366;2024-01-30T05:42:41;2.20;99.90
17948;DHT22;9099;47.958;11.366;2024-01-30T05:45:08;2.20;99.90
17948;DHT22;9099;47.958;11.366;2024-01-30T05:47:37;2.20;99.90
17948;DHT22;9099;47.958;11.366;2024-01-30T05:50:04;2.20;99.90
17948;DHT22;9099;47.958;11.366;2024-01-30T05:52:31;2.20;99.90
17948;DHT22;9099;47.958;11.366;2024-01-30T05:54:58;2.20;99.90
17948;DHT22;9099;47.958;11.366;2024-01-30T05:57:25;2.20;99.90
17948;DHT22;9099;47.958;11.366;2024-01-30T05:59:52;2.20;99.90
17948;DHT22;9099;47.958;11.366;2024-01-30T06:02:19;2.30;99.90
17948;DHT22;9099;47.958;11.366;2024-01-30T06:04:47;2.20;99.90
17948;DHT22;9099;47.958;11.366;2024-01-30T06:07:14;2.20;99.90
17948;DHT22;9099;47.958;11.366;2024-01-30T06:09:41;2.20;99.90
17948;DHT22;9099;47.958;11.366;2024-01-30T06:12:08;2.20;99.90
17948;DHT22;9099;47.958;11.366;2024-01-30T06:14:37;2.20;99.90
17948;DHT22;9099;47.958;11.366;2024-01-30T06:17:04;2.20;99.90
17948;DHT22;9099;47.958;11.366;2024-01-30T06:19:31;2.20;99.90
17948;DHT22;9099;47.958;11.366;2024-01-30T06:21:59;2.30;99.90
17948;DHT22;9099;47.958;11.366;2024-01-30T06:24:26;2.30;99.90
17948;DHT22;9099;47.958;11.366;2024-01-30T06:26:53;2.30;99.90
17948;DHT22;9099;47.958;11.366;2024-01-30T06:29:20;2.30;99.90
17948;DHT22;9099;47.958;11.366;2024-01-30T06:31:47;2.30;99.90
17948;DHT22;9099;47.958;11.366;2024-01-30T06:34:14;2.40;99.90
17948;DHT22;9099;47.958;11.366;2024-01-30T06:36:41;2.30;99.90
17948;DHT22;9099;47.958;11.366;2024-01-30T06:39:09;2.30;99.90
17948;DHT22;9099;47.958;11.366;2024-01-30T06:41:36;2.30;99.90
17948;DHT22;9099;47.958;11.366;2024-01-30T06:44:03;2.30;99.90
17948;DHT22;9099;47.958;11.366;2024-01-30T06:46:31;2.30;99.90
17948;DHT22;9099;47.958;11.366;2024-01-30T06:48:59;2.30;99.90
17948;DHT22;9099;47.958;11.366;2024-01-30T06:51:25;2.30;99.90
17948;DHT22;9099;47.958;11.366;2024-01-30T06:53:52;2.40;99.90
17948;DHT22;9099;47.958;11.366;2024-01-30T06:56:20;2.40;99.90
17948;DHT22;9099;47.958;11.366;2024-01-30T06:58:48;2.40;99.90
17948;DHT22;9099;47.958;11.366;2024-01-30T07:01:15;2.40;99.90
17948;DHT22;9099;47.958;11.366;2024-01-30T07:03:42;2.40;99.90
17948;DHT22;9099;47.958;11.366;2024-01-30T07:06:10;2.50;99.90
17948;DHT22;9099;47.958;11.366;2024-01-30T07:08:37;2.50;99.90
17948;DHT22;9099;47.958;11.366;2024-01-30T07:11:04;2.60;99.90
17948;DHT22;9099;47.958;11.366;2024-01-30T07:13:34;2.70;99.90
17948;DHT22;9099;47.958;11.366;2024-01-30T07:16:00;2.80;99.90
17948;DHT22;9099;47.958;11.366;2024-01-30T07:18:27;2.90;99.90
17948;DHT22;9099;47.958;11.366;2024-01-30T07:20:54;3.00;99.90
17948;DHT22;9099;47.958;11.366;2024-01-30T07:26:43;3.10;99.90
17948;DHT22;9099;47.958;11.366;2024-01-30T07:29:11;3.10;99.90
17948;DHT22;9099;47.958;11.366;2024-01-30T07:31:38;3.10;99.90
17948;DHT22;9099;47.958;11.366;2024-01-30T07:34:05;3.20;99.90
17948;DHT22;9099;47.958;11.366;2024-01-30T07:36:32;3.30;99.90
17948;DHT22;9099;47.958;11.366;2024-01-30T07:38:59;3.50;99.90
17948;DHT22;9099;47.958;11.366;2024-01-30T07:41:26;3.70;99.90
17948;DHT22;9099;47.958;11.366;2024-01-30T07:43:52;4.10;99.90
17948;DHT22;9099;47.958;11.366;2024-01-30T07:46:21;4.50;99.90
17948;DHT22;9099;47.958;11.366;2024-01-30T07:48:47;5.30;99.90
17948;DHT22;9099;47.958;11.366;2024-01-30T07:51:14;6.30;99.90
17948;DHT22;9099;47.958;11.366;2024-01-30T07:53:41;7.50;99.90
17948;DHT22;9099;47.958;11.366;2024-01-30T07:56:08;8.70;99.90
17948;DHT22;9099;47.958;11.366;2024-01-30T07:58:35;9.80;99.90
17948;DHT22;9099;47.958;11.366;2024-01-30T08:01:02;10.80;99.90
17948;DHT22;9099;47.958;11.366;2024-01-30T08:03:30;11.80;99.90
17948;DHT22;9099;47.958;11.366;2024-01-30T08:05:57;12.70;99.90
17948;DHT22;9099;47.958;11.366;2024-01-30T08:08:23;13.20;99.90
17948;DHT22;9099;47.958;11.366;2024-01-30T08:10:52;13.60;99.90
17948;DHT22;9099;47.958;11.366;2024-01-30T08:13:19;14.10;99.90
17948;DHT22;9099;47.958;11.366;2024-01-30T08:15:45;14.80;99.90
17948;DHT22;9099;47.958;11.366;2024-01-30T08:18:12;15.60;99.90
17948;DHT22;9099;47.958;11.366;2024-01-30T08:20:40;15.70;99.90
17948;DHT22;9099;47.958;11.366;2024-01-30T08:23:07;16.00;99.90
17948;DHT22;9099;47.958;11.366;2024-01-30T08:25:34;16.40;99.90
17948;DHT22;9099;47.958;11.366;2024-01-30T08:28:02;17.00;99.90
17948;DHT22;9099;47.958;11.366;2024-01-30T08:30:29;17.60;99.70
17948;DHT22;9099;47.958;11.366;2024-01-30T08:32:56;18.20;98.80
17948;DHT22;9099;47.958;11.366;2024-01-30T08:35:23;18.50;98.70
17948;DHT22;9099;47.958;11.366;2024-01-30T08:37:51;18.80;98.20
17948;DHT22;9099;47.958;11.366;2024-01-30T08:40:19;19.20;96.70
17948;DHT22;9099;47.958;11.366;2024-01-30T08:42:46;19.50;95.90
17948;DHT22;9099;47.958;11.366;2024-01-30T08:45:13;19.90;95.50
17948;DHT22;9099;47.958;11.366;2024-01-30T08:47:40;20.00;95.00
17948;DHT22;9099;47.958;11.366;2024-01-30T08:50:08;19.60;94.60
17948;DHT22;9099;47.958;11.366;2024-01-30T08:52:34;19.60;94.40
17948;DHT22;9099;47.958;11.366;2024-01-30T08:55:03;19.70;95.00
17948;DHT22;9099;47.958;11.366;2024-01-30T08:57:30;20.00;93.90
17948;DHT22;9099;47.958;11.366;2024-01-30T08:59:57;20.30;93.20
17948;DHT22;9099;47.958;11.366;2024-01-30T09:02:24;20.60;92.90
17948;DHT22;9099;47.958;11.366;2024-01-30T09:04:51;20.90;91.50
17948;DHT22;9099;47.958;11.366;2024-01-30T09:07:18;21.10;91.60
17948;DHT22;9099;47.958;11.366;2024-01-30T09:09:45;21.60;90.70
17948;DHT22;9099;47.958;11.366;2024-01-30T09:12:13;21.70;90.40
17948;DHT22;9099;47.958;11.366;2024-01-30T09:14:40;22.40;90.60
17948;DHT22;9099;47.958;11.366;2024-01-30T09:20:28;22.30;89.50
17948;DHT22;9099;47.958;11.366;2024-01-30T09:22:55;21.40;90.10
17948;DHT22;9099;47.958;11.366;2024-01-30T09:25:22;21.20;91.30
17948;DHT22;9099;47.958;11.366;2024-01-30T09:27:50;21.70;90.40
17948;DHT22;9099;47.958;11.366;2024-01-30T09:30:17;21.90;90.80
17948;DHT22;9099;47.958;11.366;2024-01-30T09:32:44;22.10;88.60
17948;DHT22;9099;47.958;11.366;2024-01-30T09:35:11;21.70;87.30
17948;DHT22;9099;47.958;11.366;2024-01-30T09:37:38;21.30;85.40
17948;DHT22;9099;47.958;11.366;2024-01-30T09:40:08;21.20;88.70
17948;DHT22;9099;47.958;11.366;2024-01-30T09:42:36;22.00;85.90
17948;DHT22;9099;47.958;11.366;2024-01-30T09:45:05;22.50;87.90
17948;DHT22;9099;47.958;11.366;2024-01-30T09:47:32;22.70;88.10
17948;DHT22;9099;47.958;11.366;2024-01-30T09:50:06;22.40;88.90
17948;DHT22;9099;47.958;11.366;2024-01-30T09:52:33;22.60;89.70
17948;DHT22;9099;47.958;11.366;2024-01-30T09:55:01;22.90;88.30
17948;DHT22;9099;47.958;11.366;2024-01-30T09:57:28;22.90;88.80
17948;DHT22;9099;47.958;11.366;2024-01-30T09:59:55;22.70;90.10
17948;DHT22;9099;47.958;11.366;2024-01-30T10:02:23;22.70;88.10
17948;DHT22;9099;47.958;11.366;2024-01-30T10:04:51;22.50;89.00
17948;DHT22;9099;47.958;11.366;2024-01-30T10:07:19;22.60;89.20
17948;DHT22;9099;47.958;11.366;2024-01-30T10:09:46;23.10;89.20
17948;DHT22;9099;47.958;11.366;2024-01-30T10:12:15;23.10;88.20
17948;DHT22;9099;47.958;11.366;2024-01-30T10:14:43;23.20;87.10
17948;DHT22;9099;47.958;11.366;2024-01-30T10:17:11;23.10;86.30
17948;DHT22;9099;47.958;11.366;2024-01-30T10:19:40;22.50;86.80
17948;DHT22;9099;47.958;11.366;2024-01-30T10:22:07;22.40;89.60
17948;DHT22;9099;47.958;11.366;2024-01-30T10:24:35;22.30;86.10
17948;DHT22;9099;47.958;11.366;2024-01-30T10:27:03;22.30;89.60
17948;DHT22;9099;47.958;11.366;2024-01-30T10:29:29;22.60;89.90
17948;DHT22;9099;47.958;11.366;2024-01-30T10:32:00;22.80;86.10
17948;DHT22;9099;47.958;11.366;2024-01-30T10:34:27;23.30;86.00
17948;DHT22;9099;47.958;11.366;2024-01-30T10:37:01;23.50;84.50
17948;DHT22;9099;47.958;11.366;2024-01-30T10:39:32;23.90;84.20
17948;DHT22;9099;47.958;11.366;2024-01-30T10:42:05;23.90;84.00
17948;DHT22;9099;47.958;11.366;2024-01-30T10:44:39;23.50;83.50
17948;DHT22;9099;47.958;11.366;2024-01-30T10:47:12;23.20;84.00
17948;DHT22;9099;47.958;11.366;2024-01-30T10:49:40;22.60;85.40
17948;DHT22;9099;47.958;11.366;2024-01-30T10:52:10;21.70;89.20
17948;DHT22;9099;47.958;11.366;2024-01-30T10:54:40;21.30;90.40
17948;DHT22;9099;47.958;11.366;2024-01-30T10:57:10;20.90;87.80
17948;DHT22;9099;47.958;11.366;2024-01-30T10:59:38;20.40;89.60
17948;DHT22;9099;47.958;11.366;2024-01-30T11:02:05;19.80;90.20
17948;DHT22;9099;47.958;11.366;2024-01-30T11:04:36;19.00;90.70
17948;DHT22;9099;47.958;11.366;2024-01-30T11:07:14;18.60;92.70
17948;DHT22;9099;47.958;11.366;2024-01-30T11:09:48;18.70;92.70
17948;DHT22;9099;47.958;11.366;2024-01-30T11:12:16;18.80;92.50
17948;DHT22;9099;47.958;11.366;2024-01-30T11:14:42;18.90;91.90
17948;DHT22;9099;47.958;11.366;2024-01-30T11:17:10;18.90;92.20
17948;DHT22;9099;47.958;11.366;2024-01-30T11:19:38;18.90;91.20
17948;DHT22;9099;47.958;11.366;2024-01-30T11:22:06;18.60;92.00
17948;DHT22;9099;47.958;11.366;2024-01-30T11:24:39;18.50;91.70
17948;DHT22;9099;47.958;11.366;2024-01-30T11:27:09;18.70;93.70
17948;DHT22;9099;47.958;11.366;2024-01-30T11:29:36;19.50;93.40
17948;DHT22;9099;47.958;11.366;2024-01-30T11:32:03;20.20;91.00
17948;DHT22;9099;47.958;11.366;2024-01-30T11:34:30;20.60;92.00
17948;DHT22;9099;47.958;11.366;2024-01-30T11:37:03;20.20;90.20
17948;DHT22;9099;47.958;11.366;2024-01-30T11:39:30;20.00;90.40
17948;DHT22;9099;47.958;11.366;2024-01-30T11:41:59;20.00;90.50
17948;DHT22;9099;47.958;11.366;2024-01-30T11:44:26;20.10;90.40
17948;DHT22;9099;47.958;11.366;2024-01-30T11:46:53;20.50;91.00
17948;DHT22;9099;47.958;11.366;2024-01-30T11:49:20;21.10;90.70
17948;DHT22;9099;47.958;11.366;2024-01-30T11:51:47;21.30;88.80
17948;DHT22;9099;47.958;11.366;2024-01-30T11:54:14;21.40;85.90
17948;DHT22;9099;47.958;11.366;2024-01-30T11:56:42;21.60;86.80
17948;DHT22;9099;47.958;11.366;2024-01-30T11:59:11;21.60;86.50
17948;DHT22;9099;47.958;11.366;2024-01-30T12:01:38;21.70;82.40
17948;DHT22;9099;47.958;11.366;2024-01-30T12:04:05;21.40;84.00
17948;DHT22;9099;47.958;11.366;2024-01-30T12:06:34;21.30;88.40
17948;DHT22;9099;47.958;11.366;2024-01-30T12:09:02;21.60;85.70
17948;DHT22;9099;47.958;11.366;2024-01-30T12:11:30;21.60;82.00
17948;DHT22;9099;47.958;11.366;2024-01-30T12:13:57;21.30;80.00
17948;DHT22;9099;47.958;11.366;2024-01-30T12:16:26;20.90;83.30
17948;DHT22;9099;47.958;11.366;2024-01-30T12:18:59;20.80;84.70
17948;DHT22;9099;47.958;11.366;2024-01-30T12:21:28;20.50;84.60
17948;DHT22;9099;47.958;11.366;2024-01-30T12:23:55;20.10;84.50
17948;DHT22;9099;47.958;11.366;2024-01-30T12:26:23;19.70;84.30
17948;DHT22;9099;47.958;11.366;2024-01-30T12:28:50;19.40;88.40
17948;DHT22;9099;47.958;11.366;2024-01-30T12:31:17;19.20;86.60
17948;DHT22;9099;47.958;11.366;2024-01-30T12:33:49;18.80;87.80
17948;DHT22;9099;47.958;11.366;2024-01-30T12:36:16;18.60;90.00
17948;DHT22;9099;47.958;11.366;2024-01-30T12:38:43;18.70;90.50
17948;DHT22;9099;47.958;11.366;2024-01-30T12:41:11;18.80;89.50
17948;DHT22;9099;47.958;11.366;2024-01-30T12:43:37;19.00;88.90
17948;DHT22;9099;47.958;11.366;2024-01-30T12:46:05;18.80;89.10
17948;DHT22;9099;47.958;11.366;2024-01-30T12:48:32;18.80;90.90
17948;DHT22;9099;47.958;11.366;2024-01-30T12:51:00;19.20;90.30
17948;DHT22;9099;47.958;11.366;2024-01-30T12:53:27;19.40;88.30
17948;DHT22;9099;47.958;11.366;2024-01-30T12:55:54;19.20;90.90
17948;DHT22;9099;47.958;11.366;2024-01-30T12:58:21;19.20;90.30
17948;DHT22;9099;47.958;11.366;2024-01-30T13:00:48;19.20;90.30
17948;DHT22;9099;47.958;11.366;2024-01-30T13:03:14;19.40;89.10
17948;DHT22;9099;47.958;11.366;2024-01-30T13:05:42;19.10;85.80
17948;DHT22;9099;47.958;11.366;2024-01-30T13:08:10;18.80;87.90
17948;DHT22;9099;47.958;11.366;2024-01-30T13:10:37;18.70;86.90
17948;DHT22;9099;47.958;11.366;2024-01-30T13:13:04;18.60;88.90
17948;DHT22;9099;47.958;11.366;2024-01-30T13:15:31;18.40;86.10
17948;DHT22;9099;47.958;11.366;2024-01-30T13:17:58;18.30;88.20
17948;DHT22;9099;47.958;11.366;2024-01-30T13:20:25;18.20;90.40
17948;DHT22;9099;47.958;11.366;2024-01-30T13:22:51;18.20;87.80
17948;DHT22;9099;47.958;11.366;2024-01-30T13:25:20;17.90;90.50
17948;DHT22;9099;47.958;11.366;2024-01-30T13:27:47;18.00;90.00
17948;DHT22;9099;47.958;11.366;2024-01-30T13:30:14;18.20;88.40
17948;DHT22;9099;47.958;11.366;2024-01-30T13:32:41;18.30;85.40
17948;DHT22;9099;47.958;11.366;2024-01-30T13:35:09;18.10;84.40
17948;DHT22;9099;47.958;11.366;2024-01-30T13:37:36;18.00;88.80
17948;DHT22;9099;47.958;11.366;2024-01-30T13:40:05;18.00;86.00
17948;DHT22;9099;47.958;11.366;2024-01-30T13:42:35;17.90;85.40
17948;DHT22;9099;47.958;11.366;2024-01-30T13:45:03;17.80;87.40
17948;DHT22;9099;47.958;11.366;2024-01-30T13:47:30;17.80;84.90
17948;DHT22;9099;47.958;11.366;2024-01-30T13:49:56;17.80;86.70
17948;DHT22;9099;47.958;11.366;2024-01-30T13:52:23;17.80;85.50
17948;DHT22;9099;47.958;11.366;2024-01-30T13:54:50;17.90;85.00
17948;DHT22;9099;47.958;11.366;2024-01-30T13:57:17;17.80;85.70
17948;DHT22;9099;47.958;11.366;2024-01-30T13:59:45;17.60;86.00
17948;DHT22;9099;47.958;11.366;2024-01-30T14:02:12;17.40;86.30
17948;DHT22;9099;47.958;11.366;2024-01-30T14:04:39;17.00;84.60
17948;DHT22;9099;47.958;11.366;2024-01-30T14:07:05;16.70;85.00
17948;DHT22;9099;47.958;11.366;2024-01-30T14:09:32;16.50;88.10
17948;DHT22;9099;47.958;11.366;2024-01-30T14:11:59;16.30;89.00
17948;DHT22;9099;47.958;11.366;2024-01-30T14:14:26;16.40;89.40
17948;DHT22;9099;47.958;11.366;2024-01-30T14:16:54;16.30;88.30
17948;DHT22;9099;47.958;11.366;2024-01-30T14:19:22;16.00;88.10
17948;DHT22;9099;47.958;11.366;2024-01-30T14:21:48;15.80;88.70
17948;DHT22;9099;47.958;11.366;2024-01-30T14:24:15;15.60;89.30
17948;DHT22;9099;47.958;11.366;2024-01-30T14:26:42;15.50;88.70
17948;DHT22;9099;47.958;11.366;2024-01-30T14:29:09;15.40;90.40
17948;DHT22;9099;47.958;11.366;2024-01-30T14:31:36;15.40;90.10
17948;DHT22;9099;47.958;11.366;2024-01-30T14:34:04;15.30;88.90
17948;DHT22;9099;47.958;11.366;2024-01-30T14:36:31;15.10;90.10
17948;DHT22;9099;47.958;11.366;2024-01-30T14:38:58;15.00;90.20
17948;DHT22;9099;47.958;11.366;2024-01-30T14:41:25;14.90;90.70
17948;DHT22;9099;47.958;11.366;2024-01-30T14:43:52;14.70;91.30
17948;DHT22;9099;47.958;11.366;2024-01-30T14:46:19;14.60;91.30
17948;DHT22;9099;47.958;11.366;2024-01-30T14:48:46;14.60;91.80
17948;DHT22;9099;47.958;11.366;2024-01-30T14:51:14;14.60;91.80
17948;DHT22;9099;47.958;11.366;2024-01-30T14:53:42;14.60;91.90
17948;DHT22;9099;47.958;11.366;2024-01-30T14:56:10;14.40;91.90
17948;DHT22;9099;47.958;11.366;2024-01-30T14:58:37;14.30;92.60
17948;DHT22;9099;47.958;11.366;2024-01-30T15:01:04;14.20;92.50
17948;DHT22;9099;47.958;11.366;2024-01-30T15:03:31;14.10;92.70
17948;DHT22;9099;47.958;11.366;2024-01-30T15:05:58;14.10;93.20
17948;DHT22;9099;47.958;11.366;2024-01-30T15:08:26;14.10;93.40
17948;DHT22;9099;47.958;11.366;2024-01-30T15:10:53;14.10;93.20
17948;DHT22;9099;47.958;11.366;2024-01-30T15:13:19;14.10;93.00
17948;DHT22;9099;47.958;11.366;2024-01-30T15:15:46;14.20;93.10
17948;DHT22;9099;47.958;11.366;2024-01-30T15:18:13;14.20;93.30
17948;DHT22;9099;47.958;11.366;2024-01-30T15:20:40;14.10;93.30
17948;DHT22;9099;47.958;11.366;2024-01-30T15:23:07;14.00;93.50
17948;DHT22;9099;47.958;11.366;2024-01-30T15:25:35;14.00;93.50
17948;DHT22;9099;47.958;11.366;2024-01-30T15:28:02;13.90;93.90
17948;DHT22;9099;47.958;11.366;2024-01-30T15:30:29;13.80;94.90
17948;DHT22;9099;47.958;11.366;2024-01-30T15:32:55;13.70;95.00
17948;DHT22;9099;47.958;11.366;2024-01-30T15:35:22;13.60;95.10
17948;DHT22;9099;47.958;11.366;2024-01-30T15:37:49;13.50;95.20
17948;DHT22;9099;47.958;11.366;2024-01-30T15:40:16;13.40;95.10
17948;DHT22;9099;47.958;11.366;2024-01-30T15:42:45;13.30;95.00
17948;DHT22;9099;47.958;11.366;2024-01-30T15:45:12;13.20;95.30
17948;DHT22;9099;47.958;11.366;2024-01-30T15:47:39;13.10;95.50